createdAt,value
2023-06-10T00:01:25.715Z,102653.34
2023-06-10T00:03:55.456Z,102656.97
2023-06-10T00:06:25.426Z,102662.28
2023-06-10T00:08:52.748Z,102664.97
2023-06-10T00:11:19.486Z,102664.94
2023-06-10T00:13:46.402Z,102659.66
2023-06-10T00:16:13.119Z,102666.72
2023-06-10T00:18:39.930Z,102667.59
2023-06-10T00:21:06.997Z,102666.75
2023-06-10T00:23:38.849Z,102668.63
2023-06-10T00:26:06.222Z,102674.88
2023-06-10T00:28:32.957Z,102669.59
2023-06-10T00:30:59.719Z,102673.13
2023-06-10T00:33:26.520Z,102674.88
2023-06-10T00:35:53.545Z,102674.06
2023-06-10T00:38:20.519Z,102682.97
2023-06-10T00:40:47.365Z,102680.31
2023-06-10T00:43:14.040Z,102681.22
2023-06-10T00:45:40.968Z,102679.44
2023-06-10T00:48:08.253Z,102682.09
2023-06-10T00:50:35.850Z,102683.84
2023-06-10T00:53:02.863Z,102681.22
2023-06-10T00:55:29.568Z,102680.41
2023-06-10T00:57:56.346Z,102696.34
2023-06-10T01:00:23.085Z,102699.94
2023-06-10T01:02:50.536Z,102694.69
2023-06-10T01:05:17.413Z,102699.19
2023-06-10T01:07:48.577Z,102709.78
2023-06-10T01:10:29.766Z,102702.75
2023-06-10T01:13:00.618Z,102712.50
2023-06-10T01:15:27.590Z,102708.97
2023-06-10T01:17:59.505Z,102707.22
2023-06-10T01:20:30.831Z,102703.66
2023-06-10T01:22:59.140Z,102707.22
2023-06-10T01:25:30.731Z,102701.91
2023-06-10T01:28:04.725Z,102699.25
2023-06-10T01:30:41.069Z,102707.22
2023-06-10T01:33:10.771Z,102711.69
2023-06-10T01:35:40.376Z,102717.88
2023-06-10T01:38:08.054Z,102721.41
2023-06-10T01:40:35.697Z,102719.69
2023-06-10T01:43:03.099Z,102725.00
2023-06-10T01:45:29.819Z,102731.19
2023-06-10T01:47:56.669Z,102732.03
2023-06-10T01:50:23.777Z,102727.63
2023-06-10T01:52:50.521Z,102732.00
2023-06-10T01:55:17.409Z,102726.72
2023-06-10T01:57:44.156Z,102729.34
2023-06-10T02:00:11.595Z,102729.34
2023-06-10T02:02:38.442Z,102737.31
2023-06-10T02:05:06.602Z,102727.59
2023-06-10T02:07:33.418Z,102722.31
2023-06-10T02:10:00.078Z,102730.28
2023-06-10T02:12:26.897Z,102719.69
2023-06-10T02:14:53.685Z,102736.47
2023-06-10T02:17:20.617Z,102729.44
2023-06-10T02:19:53.593Z,102726.75
2023-06-10T02:22:24.223Z,102733.81
2023-06-10T02:24:51.130Z,102735.56
2023-06-10T02:27:19.311Z,102732.91
2023-06-10T02:29:46.063Z,102731.19
2023-06-10T02:32:12.772Z,102733.84
2023-06-10T02:34:39.489Z,102736.50
2023-06-10T02:37:06.255Z,102731.19
2023-06-10T02:39:32.953Z,102741.78
2023-06-10T02:41:59.663Z,102746.19
2023-06-10T02:44:26.418Z,102752.41
2023-06-10T02:46:53.200Z,102744.44
2023-06-10T02:49:19.852Z,102751.50
2023-06-10T02:51:46.516Z,102750.63
2023-06-10T02:54:13.184Z,102752.41
2023-06-10T02:56:42.942Z,102745.31
2023-06-10T02:59:09.735Z,102747.97
2023-06-10T03:01:38.192Z,102756.81
2023-06-10T03:04:06.538Z,102747.97
2023-06-10T03:06:34.943Z,102753.25
2023-06-10T03:09:01.847Z,102742.66
2023-06-10T03:11:28.512Z,102751.50
2023-06-10T03:13:55.498Z,102755.00
2023-06-10T03:16:22.287Z,102762.97
2023-06-10T03:18:50.473Z,102765.63
2023-06-10T03:21:17.304Z,102761.19
2023-06-10T03:23:44.175Z,102761.22
2023-06-10T03:26:12.962Z,102769.16
2023-06-10T03:28:39.655Z,102771.78
2023-06-10T03:31:06.694Z,102763.84
2023-06-10T03:33:34.023Z,102767.38
2023-06-10T03:36:00.710Z,102762.97
2023-06-10T03:38:27.433Z,102767.38
2023-06-10T03:40:54.086Z,102773.56
2023-06-10T03:43:21.361Z,102766.50
2023-06-10T03:45:49.402Z,102770.03
2023-06-10T03:48:16.515Z,102772.66
2023-06-10T03:50:43.309Z,102771.78
2023-06-10T03:53:10.034Z,102771.78
2023-06-10T03:55:37.350Z,102775.31
2023-06-10T03:58:04.017Z,102769.09
2023-06-10T04:00:31.128Z,102772.63
2023-06-10T04:02:59.399Z,102780.59
2023-06-10T04:05:26.211Z,102780.56
2023-06-10T04:07:52.975Z,102778.78
2023-06-10T04:10:19.767Z,102776.16
2023-06-10T04:12:46.533Z,102780.53
2023-06-10T04:15:14.470Z,102781.41
2023-06-10T04:17:41.279Z,102776.09
2023-06-10T04:20:09.162Z,102778.72
2023-06-10T04:22:36.158Z,102781.31
2023-06-10T04:25:03.290Z,102783.97
2023-06-10T04:27:30.560Z,102784.84
2023-06-10T04:29:57.235Z,102779.53
2023-06-10T04:32:23.987Z,102779.47
2023-06-10T04:34:50.788Z,102779.47
2023-06-10T04:37:17.558Z,102781.22
2023-06-10T04:39:44.500Z,102788.28
2023-06-10T04:42:11.434Z,102790.94
2023-06-10T04:44:38.108Z,102794.44
2023-06-10T04:47:05.112Z,102792.59
2023-06-10T04:49:32.425Z,102798.75
2023-06-10T04:51:59.100Z,102796.06
2023-06-10T04:54:26.037Z,102796.88
2023-06-10T04:56:52.855Z,102795.03
2023-06-10T04:59:19.526Z,102794.09
2023-06-10T05:01:46.243Z,102787.78
2023-06-10T05:04:12.965Z,102789.47
2023-06-10T05:06:39.773Z,102793.88
2023-06-10T05:09:06.505Z,102794.66
2023-06-10T05:11:33.474Z,102794.56
2023-06-10T05:14:00.260Z,102793.66
2023-06-10T05:16:26.993Z,102789.16
2023-06-10T05:18:53.676Z,102794.38
2023-06-10T05:21:20.401Z,102796.06
2023-06-10T05:23:47.388Z,102800.41
2023-06-10T05:26:14.164Z,102795.88
2023-06-10T05:28:40.945Z,102792.28
2023-06-10T05:31:07.645Z,102792.22
2023-06-10T05:33:34.352Z,102794.84
2023-06-10T05:36:01.276Z,102798.31
2023-06-10T05:38:28.275Z,102796.50
2023-06-10T05:40:54.986Z,102793.72
2023-06-10T05:43:21.657Z,102790.97
2023-06-10T05:45:48.459Z,102798.81
2023-06-10T05:48:15.329Z,102799.59
2023-06-10T05:50:43.722Z,102796.81
2023-06-10T05:53:16.289Z,102802.00
2023-06-10T05:55:44.619Z,102796.59
2023-06-10T05:58:13.414Z,102793.88
2023-06-10T06:00:41.051Z,102800.84
2023-06-10T06:03:11.130Z,102797.22
2023-06-10T06:05:39.299Z,102802.41
2023-06-10T06:08:06.670Z,102801.41
2023-06-10T06:10:33.717Z,102794.34
2023-06-10T06:13:01.256Z,102801.44
2023-06-10T06:15:28.118Z,102802.22
2023-06-10T06:17:55.127Z,102804.75
2023-06-10T06:20:22.013Z,102804.59
2023-06-10T06:22:49.017Z,102809.75
2023-06-10T06:25:16.303Z,102798.94
2023-06-10T06:27:43.005Z,102807.66
2023-06-10T06:30:10.161Z,102805.75
2023-06-10T06:32:37.042Z,102814.44
2023-06-10T06:35:04.139Z,102805.44
2023-06-10T06:37:30.860Z,102812.41
2023-06-10T06:40:02.203Z,102809.69
2023-06-10T06:42:30.853Z,102820.25
2023-06-10T06:44:57.551Z,102813.88
2023-06-10T06:47:24.324Z,102818.06
2023-06-10T06:49:51.186Z,102817.13
2023-06-10T06:52:17.970Z,102820.66
2023-06-10T06:54:44.731Z,102821.47
2023-06-10T06:57:11.861Z,102819.66
2023-06-10T06:59:38.604Z,102817.69
2023-06-10T07:02:05.561Z,102821.88
2023-06-10T07:04:32.581Z,102829.56
2023-06-10T07:06:59.316Z,102827.50
2023-06-10T07:09:25.991Z,102824.59
2023-06-10T07:11:52.737Z,102828.78
2023-06-10T07:14:19.478Z,102831.25
2023-06-10T07:16:47.363Z,102828.38
2023-06-10T07:19:14.692Z,102823.75
2023-06-10T07:21:41.403Z,102827.03
2023-06-10T07:24:08.202Z,102825.94
2023-06-10T07:26:35.041Z,102824.81
2023-06-10T07:29:01.767Z,102828.06
2023-06-10T07:31:28.516Z,102825.09
2023-06-10T07:33:55.189Z,102815.81
2023-06-10T07:36:21.858Z,102824.47
2023-06-10T07:38:48.663Z,102817.16
2023-06-10T07:41:17.861Z,102818.91
2023-06-10T07:43:44.587Z,102819.69
2023-06-10T07:46:11.323Z,102819.44
2023-06-10T07:48:38.141Z,102821.78
2023-06-10T07:51:04.852Z,102823.28
2023-06-10T07:53:31.580Z,102819.44
2023-06-10T07:55:58.309Z,102821.78
2023-06-10T07:58:25.037Z,102826.00
2023-06-10T08:00:51.772Z,102824.81
2023-06-10T08:03:18.598Z,102818.38
2023-06-10T08:05:45.447Z,102818.22
2023-06-10T08:08:12.190Z,102815.34
2023-06-10T08:10:39.088Z,102816.91
2023-06-10T08:13:05.827Z,102818.56
2023-06-10T08:15:32.500Z,102829.09
2023-06-10T08:17:59.210Z,102825.28
2023-06-10T08:20:26.275Z,102817.88
2023-06-10T08:22:53.018Z,102818.47
2023-06-10T08:25:19.855Z,102821.72
2023-06-10T08:27:46.577Z,102821.56
2023-06-10T08:30:14.443Z,102816.19
2023-06-10T08:32:41.295Z,102817.81
2023-06-10T08:35:08.598Z,102817.53
2023-06-10T08:37:35.499Z,102821.84
2023-06-10T08:40:02.384Z,102821.56
2023-06-10T08:42:42.586Z,102812.34
2023-06-10T08:45:14.510Z,102803.19
2023-06-10T08:47:45.681Z,102811.91
2023-06-10T08:50:13.034Z,102809.03
2023-06-10T08:52:44.524Z,102811.31
2023-06-10T08:55:15.218Z,102814.72
2023-06-10T08:57:46.550Z,102809.88
2023-06-10T09:00:14.569Z,102809.59
2023-06-10T09:02:41.390Z,102822.78
2023-06-10T09:05:09.063Z,102818.97
2023-06-10T09:07:37.407Z,102807.81
2023-06-10T09:10:08.225Z,102809.28
2023-06-10T09:12:36.694Z,102805.50
2023-06-10T09:15:04.126Z,102797.22
2023-06-10T09:17:31.067Z,102804.97
2023-06-10T09:19:58.310Z,102802.13
2023-06-10T09:22:26.630Z,102795.72
2023-06-10T09:25:06.636Z,102800.78
2023-06-10T09:27:33.818Z,102797.66
2023-06-10T09:30:00.794Z,102793.81
2023-06-10T09:32:28.393Z,102785.44
2023-06-10T09:34:55.201Z,102785.22
2023-06-10T09:37:23.781Z,102791.13
2023-06-10T09:40:07.852Z,102786.28
2023-06-10T09:42:36.631Z,102787.72
2023-06-10T09:45:04.750Z,102786.50
2023-06-10T09:47:31.633Z,102788.72
2023-06-10T09:49:58.497Z,102785.63
2023-06-10T09:52:26.765Z,102785.31
2023-06-10T09:54:54.987Z,102786.88
2023-06-10T09:57:23.661Z,102779.44
2023-06-10T09:59:54.067Z,102772.75
2023-06-10T10:02:21.297Z,102782.84
2023-06-10T10:04:48.345Z,102778.56
2023-06-10T10:07:15.371Z,102779.78
2023-06-10T10:09:43.538Z,102775.78
2023-06-10T10:12:12.276Z,102781.81
2023-06-10T10:14:40.092Z,102775.25
2023-06-10T10:17:15.181Z,102774.50
2023-06-10T10:19:49.532Z,102778.47
2023-06-10T10:22:27.836Z,102768.97
2023-06-10T10:24:58.297Z,102766.72
2023-06-10T10:27:29.788Z,102769.00
2023-06-10T10:29:59.489Z,102765.22
2023-06-10T10:32:55.149Z,102763.88
2023-06-10T10:35:26.229Z,102760.69
2023-06-10T10:37:55.141Z,102755.44
2023-06-10T10:40:23.432Z,102755.00
2023-06-10T10:42:51.193Z,102760.91
2023-06-10T10:45:18.690Z,102760.22
2023-06-10T10:47:54.381Z,102759.59
2023-06-10T10:50:22.255Z,102745.56
2023-06-10T10:52:54.857Z,102742.34
2023-06-10T10:55:22.309Z,102743.91
2023-06-10T10:58:01.597Z,102750.91
2023-06-10T11:00:32.678Z,102750.13
2023-06-10T11:03:12.156Z,102748.72
2023-06-10T11:05:49.994Z,102752.06
2023-06-10T11:08:36.862Z,102741.06
2023-06-10T11:11:23.012Z,102741.47
2023-06-10T11:14:11.095Z,102738.88
2023-06-10T11:16:44.992Z,102727.69
2023-06-10T11:19:36.194Z,102737.00
2023-06-10T11:22:08.148Z,102736.66
2023-06-10T11:24:35.175Z,102746.69
2023-06-10T11:27:38.581Z,102739.34
2023-06-10T11:30:05.291Z,102741.19
2023-06-10T11:32:34.444Z,102733.59
2023-06-10T11:35:05.262Z,102733.75
2023-06-10T11:37:32.173Z,102729.22
2023-06-10T11:40:00.055Z,102735.69
2023-06-10T11:42:26.997Z,102736.59
2023-06-10T11:44:55.507Z,102733.44
2023-06-10T11:47:26.039Z,102731.94
2023-06-10T11:49:58.738Z,102727.94
2023-06-10T11:52:33.381Z,102723.00
2023-06-10T11:55:00.285Z,102722.28
2023-06-10T11:57:27.023Z,102720.56
2023-06-10T11:59:53.721Z,102728.09
2023-06-10T12:02:20.695Z,102730.03
2023-06-10T12:04:47.596Z,102721.81
2023-06-10T12:07:21.355Z,102720.06
2023-06-10T12:09:48.473Z,102722.47
2023-06-10T12:12:15.398Z,102723.66
2023-06-10T12:14:51.263Z,102723.06
2023-06-10T12:17:17.985Z,102718.81
2023-06-10T12:19:44.669Z,102723.34
2023-06-10T12:22:11.472Z,102709.00
2023-06-10T12:25:05.859Z,102715.66
2023-06-10T12:27:33.741Z,102711.03
2023-06-10T12:30:04.835Z,102718.94
2023-06-10T12:32:42.202Z,102706.66
2023-06-10T12:35:11.059Z,102716.66
2023-06-10T12:37:41.278Z,102708.91
2023-06-10T12:40:12.988Z,102711.16
2023-06-10T12:42:40.310Z,102716.41
2023-06-10T12:45:09.427Z,102705.97
2023-06-10T12:47:40.092Z,102705.66
2023-06-10T12:50:07.780Z,102705.78
2023-06-10T12:52:34.463Z,102709.56
2023-06-10T12:55:01.956Z,102709.56
2023-06-10T12:57:29.062Z,102705.16
2023-06-10T12:59:58.394Z,102704.31
2023-06-10T13:02:25.512Z,102703.69
2023-06-10T13:04:52.866Z,102705.44
2023-06-10T13:07:19.700Z,102710.88
2023-06-10T13:09:50.060Z,102698.25
2023-06-10T13:12:24.838Z,102703.69
2023-06-10T13:14:57.510Z,102695.31
2023-06-10T13:17:24.803Z,102700.75
2023-06-10T13:19:51.736Z,102712.94
2023-06-10T13:22:20.592Z,102711.63
2023-06-10T13:24:47.857Z,102712.34
2023-06-10T13:27:15.332Z,102703.84
2023-06-10T13:29:42.135Z,102696.81
2023-06-10T13:32:09.308Z,102700.53
2023-06-10T13:34:37.274Z,102692.81
2023-06-10T13:37:06.004Z,102695.88
2023-06-10T13:39:32.805Z,102700.03
2023-06-10T13:41:59.830Z,102700.25
2023-06-10T13:44:26.686Z,102694.78
2023-06-10T13:46:53.483Z,102696.59
2023-06-10T13:49:20.836Z,102688.00
2023-06-10T13:51:47.598Z,102692.81
2023-06-10T13:54:16.862Z,102683.44
2023-06-10T13:56:43.766Z,102684.75
2023-06-10T13:59:10.499Z,102683.31
2023-06-10T14:01:37.409Z,102679.88
2023-06-10T14:04:04.350Z,102682.53
2023-06-10T14:06:31.887Z,102678.06
2023-06-10T14:08:58.736Z,102681.53
2023-06-10T14:11:25.422Z,102673.94
2023-06-10T14:13:52.258Z,102674.44
2023-06-10T14:16:19.244Z,102670.56
2023-06-10T14:18:45.981Z,102670.59
2023-06-10T14:21:13.138Z,102666.50
2023-06-10T14:23:39.962Z,102656.69
2023-06-10T14:26:08.347Z,102656.78
2023-06-10T14:28:35.028Z,102666.47
2023-06-10T14:31:01.829Z,102655.56
2023-06-10T14:33:28.539Z,102655.81
2023-06-10T14:35:55.459Z,102665.84
2023-06-10T14:38:22.131Z,102657.44
2023-06-10T14:40:48.791Z,102664.84
2023-06-10T14:43:15.498Z,102660.31
2023-06-10T14:45:42.411Z,102662.03
2023-06-10T14:48:09.578Z,102659.78
2023-06-10T14:50:36.692Z,102654.22
2023-06-10T14:53:03.980Z,102656.72
2023-06-10T14:55:30.810Z,102660.63
2023-06-10T14:57:58.951Z,102662.09
2023-06-10T15:00:26.689Z,102665.81
2023-06-10T15:02:54.784Z,102657.38
2023-06-10T15:05:21.782Z,102658.72
2023-06-10T15:07:49.169Z,102657.59
2023-06-10T15:10:17.343Z,102648.16
2023-06-10T15:12:44.168Z,102660.03
2023-06-10T15:15:11.882Z,102661.50
2023-06-10T15:17:38.871Z,102668.78
2023-06-10T15:20:06.950Z,102663.94
2023-06-10T15:22:36.223Z,102670.09
2023-06-10T15:25:08.752Z,102665.53
2023-06-10T15:27:48.173Z,102671.03
2023-06-10T15:30:15.162Z,102669.16
2023-06-10T15:32:41.951Z,102660.47
2023-06-10T15:35:09.326Z,102661.72
2023-06-10T15:37:36.732Z,102672.38
2023-06-10T15:40:03.692Z,102664.44
2023-06-10T15:42:30.457Z,102660.69
2023-06-10T15:44:57.163Z,102663.03
2023-06-10T15:47:23.884Z,102666.13
2023-06-10T15:49:51.389Z,102663.28
2023-06-10T15:52:18.169Z,102663.19
2023-06-10T15:54:45.065Z,102672.50
2023-06-10T15:57:11.866Z,102667.69
2023-06-10T15:59:39.012Z,102666.31
2023-06-10T16:02:06.129Z,102660.59
2023-06-10T16:04:32.797Z,102660.22
2023-06-10T16:06:59.499Z,102661.81
2023-06-10T16:09:26.181Z,102662.31
2023-06-10T16:11:52.919Z,102670.03
2023-06-10T16:14:19.693Z,102661.19
2023-06-10T16:16:46.455Z,102658.72
2023-06-10T16:19:13.375Z,102670.13
2023-06-10T16:21:41.394Z,102661.44
2023-06-10T16:24:09.608Z,102654.66
2023-06-10T16:26:36.432Z,102664.06
2023-06-10T16:29:03.287Z,102659.13
2023-06-10T16:31:30.091Z,102663.09
2023-06-10T16:33:56.821Z,102657.13
2023-06-10T16:36:23.547Z,102655.63
2023-06-10T16:38:50.288Z,102648.06
2023-06-10T16:41:17.133Z,102654.28
2023-06-10T16:43:43.872Z,102653.28
2023-06-10T16:46:10.547Z,102660.13
2023-06-10T16:48:37.469Z,102652.41
2023-06-10T16:51:04.620Z,102659.19
2023-06-10T16:53:31.309Z,102653.00
2023-06-10T16:56:00.738Z,102654.38
2023-06-10T16:58:29.078Z,102661.56
2023-06-10T17:01:01.141Z,102652.66
2023-06-10T17:03:27.837Z,102661.16
2023-06-10T17:05:54.575Z,102665.00
2023-06-10T17:08:21.407Z,102667.31
2023-06-10T17:10:48.116Z,102669.03
2023-06-10T17:13:16.223Z,102667.63
2023-06-10T17:15:42.988Z,102671.56
2023-06-10T17:18:10.062Z,102667.34
2023-06-10T17:20:36.797Z,102673.28
2023-06-10T17:23:04.024Z,102676.00
2023-06-10T17:25:30.820Z,102681.78
2023-06-10T17:27:57.509Z,102676.63
2023-06-10T17:30:24.272Z,102682.47
2023-06-10T17:32:52.066Z,102680.22
2023-06-10T17:35:18.902Z,102680.78
2023-06-10T17:37:46.848Z,102681.44
2023-06-10T17:40:14.006Z,102686.63
2023-06-10T17:42:40.979Z,102684.00
2023-06-10T17:45:09.534Z,102686.91
2023-06-10T17:47:36.592Z,102688.34
2023-06-10T17:50:03.426Z,102692.25
2023-06-10T17:52:30.207Z,102693.34
2023-06-10T17:54:58.114Z,102694.19
2023-06-10T17:57:24.856Z,102695.00
2023-06-10T17:59:52.049Z,102692.31
2023-06-10T18:02:18.924Z,102697.63
2023-06-10T18:04:45.868Z,102703.31
2023-06-10T18:07:12.698Z,102694.59
2023-06-10T18:09:39.386Z,102698.31
2023-06-10T18:12:07.628Z,102698.72
2023-06-10T18:14:34.352Z,102699.16
2023-06-10T18:17:01.225Z,102704.47
2023-06-10T18:19:27.922Z,102697.50
2023-06-10T18:21:54.611Z,102709.22
2023-06-10T18:24:22.302Z,102709.44
2023-06-10T18:26:49.416Z,102710.53
2023-06-10T18:29:16.278Z,102712.13
2023-06-10T18:31:43.525Z,102720.84
2023-06-10T18:34:10.470Z,102713.31
2023-06-10T18:36:37.407Z,102721.75
2023-06-10T18:39:04.274Z,102718.56
2023-06-10T18:41:31.029Z,102724.78
2023-06-10T18:44:00.787Z,102725.41
2023-06-10T18:46:27.978Z,102726.13
2023-06-10T18:48:54.819Z,102733.78
2023-06-10T18:51:23.669Z,102726.16
2023-06-10T18:53:50.731Z,102728.88
2023-06-10T18:56:17.811Z,102733.47
2023-06-10T18:58:47.687Z,102736.72
2023-06-10T19:01:14.504Z,102740.16
2023-06-10T19:03:41.457Z,102739.47
2023-06-10T19:06:08.211Z,102743.16
2023-06-10T19:08:35.018Z,102740.16
2023-06-10T19:11:02.318Z,102739.75
2023-06-10T19:13:30.187Z,102740.94
2023-06-10T19:15:57.027Z,102753.81
2023-06-10T19:18:23.859Z,102746.94
2023-06-10T19:20:51.604Z,102748.00
2023-06-10T19:23:18.693Z,102751.75
2023-06-10T19:25:45.425Z,102758.28
2023-06-10T19:28:12.180Z,102759.56
2023-06-10T19:30:38.932Z,102760.56
2023-06-10T19:33:07.967Z,102759.81
2023-06-10T19:35:36.183Z,102758.97
2023-06-10T19:38:02.948Z,102754.53
2023-06-10T19:40:29.776Z,102766.25
2023-06-10T19:42:58.621Z,102764.47
2023-06-10T19:45:25.525Z,102773.69
2023-06-10T19:47:52.454Z,102777.44
2023-06-10T19:50:19.324Z,102775.69
2023-06-10T19:52:46.423Z,102772.19
2023-06-10T19:55:15.270Z,102774.19
2023-06-10T19:57:42.153Z,102779.00
2023-06-10T20:00:10.098Z,102770.22
2023-06-10T20:02:36.981Z,102768.59
2023-06-10T20:05:03.886Z,102771.34
2023-06-10T20:07:30.626Z,102769.56
2023-06-10T20:09:57.357Z,102778.69
2023-06-10T20:12:24.113Z,102775.31
2023-06-10T20:14:51.175Z,102778.13
2023-06-10T20:17:17.837Z,102783.69
2023-06-10T20:19:49.129Z,102780.50
2023-06-10T20:22:17.258Z,102786.31
2023-06-10T20:24:44.068Z,102784.13
2023-06-10T20:27:11.210Z,102786.34
2023-06-10T20:29:37.956Z,102781.31
2023-06-10T20:32:05.289Z,102783.31
2023-06-10T20:34:32.189Z,102779.22
2023-06-10T20:36:58.921Z,102787.59
2023-06-10T20:39:26.457Z,102787.00
2023-06-10T20:41:53.141Z,102787.97
2023-06-10T20:44:19.865Z,102785.44
2023-06-10T20:46:46.655Z,102785.56
2023-06-10T20:49:15.401Z,102790.16
2023-06-10T20:51:42.432Z,102780.47
2023-06-10T20:54:09.093Z,102788.59
2023-06-10T20:56:35.831Z,102788.06
2023-06-10T20:59:02.519Z,102790.13
2023-06-10T21:01:29.321Z,102783.22
2023-06-10T21:03:56.276Z,102790.44
2023-06-10T21:06:26.343Z,102788.72
2023-06-10T21:08:53.150Z,102795.97
2023-06-10T21:11:19.849Z,102795.19
2023-06-10T21:13:46.537Z,102805.13
2023-06-10T21:16:13.393Z,102799.09
2023-06-10T21:18:40.188Z,102804.53
2023-06-10T21:21:07.014Z,102804.75
2023-06-10T21:23:33.760Z,102804.06
2023-06-10T21:26:01.916Z,102805.22
2023-06-10T21:28:28.611Z,102806.16
2023-06-10T21:30:55.430Z,102807.91
2023-06-10T21:33:24.076Z,102802.63
2023-06-10T21:35:51.347Z,102811.59
2023-06-10T21:38:18.109Z,102797.47
2023-06-10T21:40:44.858Z,102807.38
2023-06-10T21:43:11.608Z,102803.16
2023-06-10T21:45:38.263Z,102805.91
2023-06-10T21:48:05.253Z,102804.31
2023-06-10T21:50:32.206Z,102804.38
2023-06-10T21:53:01.292Z,102808.00
2023-06-10T21:55:28.477Z,102809.81
2023-06-10T21:57:55.192Z,102805.53
2023-06-10T22:00:22.194Z,102817.28
2023-06-10T22:02:48.998Z,102817.44
2023-06-10T22:05:15.846Z,102812.34
2023-06-10T22:07:42.651Z,102818.88
2023-06-10T22:10:09.739Z,102820.94
2023-06-10T22:12:36.661Z,102818.44
2023-06-10T22:15:04.866Z,102818.66
2023-06-10T22:17:31.673Z,102817.06
2023-06-10T22:19:58.364Z,102818.91
2023-06-10T22:22:25.425Z,102817.16
2023-06-10T22:24:56.290Z,102819.84
2023-06-10T22:27:23.263Z,102819.84
2023-06-10T22:29:50.128Z,102823.53
2023-06-10T22:32:16.958Z,102820.91
2023-06-10T22:34:43.682Z,102825.50
2023-06-10T22:37:10.597Z,102828.31
2023-06-10T22:39:37.280Z,102823.09
2023-06-10T22:42:05.841Z,102815.28
2023-06-10T22:44:32.942Z,102819.88
2023-06-10T22:46:59.641Z,102824.38
2023-06-10T22:49:26.425Z,102825.34
2023-06-10T22:51:53.132Z,102820.06
2023-06-10T22:54:19.816Z,102821.91
2023-06-10T22:56:46.472Z,102817.50
2023-06-10T22:59:13.120Z,102824.69
2023-06-10T23:01:39.845Z,102821.25
2023-06-10T23:04:06.702Z,102825.72
2023-06-10T23:06:33.387Z,102817.88
2023-06-10T23:09:00.061Z,102818.00
2023-06-10T23:11:26.793Z,102818.94
2023-06-10T23:13:53.548Z,102816.28
2023-06-10T23:16:20.307Z,102819.84
2023-06-10T23:18:47.757Z,102819.88
2023-06-10T23:21:15.890Z,102821.72
2023-06-10T23:23:42.669Z,102822.69
2023-06-10T23:26:09.411Z,102818.41
2023-06-10T23:28:36.087Z,102823.88
2023-06-10T23:31:02.887Z,102819.44
2023-06-10T23:33:31.972Z,102826.59
2023-06-10T23:35:59.398Z,102825.78
2023-06-10T23:38:26.413Z,102824.97
2023-06-10T23:40:53.104Z,102824.19
2023-06-10T23:43:19.778Z,102826.09
2023-06-10T23:45:46.570Z,102819.09
2023-06-10T23:48:13.286Z,102829.88
2023-06-10T23:50:41.010Z,102833.44
2023-06-10T23:53:07.836Z,102828.13
2023-06-10T23:55:38.000Z,102829.94
2023-06-10T23:58:04.816Z,102826.44
